createdAt,value
2023-03-17T00:01:09.574Z,3.68
2023-03-17T00:03:41.818Z,3.61
2023-03-17T00:06:17.614Z,3.55
2023-03-17T00:08:46.227Z,3.49
2023-03-17T00:11:14.864Z,3.50
2023-03-17T00:13:41.704Z,3.47
2023-03-17T00:16:16.497Z,3.61
2023-03-17T00:18:43.622Z,3.55
2023-03-17T00:21:14.569Z,3.42
2023-03-17T00:23:43.403Z,3.33
2023-03-17T00:26:10.901Z,3.24
2023-03-17T00:28:37.290Z,3.20
2023-03-17T00:31:13.067Z,3.14
2023-03-17T00:33:39.697Z,3.10
2023-03-17T00:36:07.455Z,3.22
2023-03-17T00:38:33.751Z,3.17
2023-03-17T00:41:01.259Z,3.18
2023-03-17T00:43:29.743Z,3.34
2023-03-17T00:45:56.980Z,3.32
2023-03-17T00:48:24.078Z,3.18
2023-03-17T00:50:50.679Z,3.01
2023-03-17T00:53:19.402Z,3.00
2023-03-17T00:55:46.647Z,2.96
2023-03-17T00:58:18.287Z,3.09
2023-03-17T01:00:45.463Z,3.08
2023-03-17T01:03:13.013Z,3.11
2023-03-17T01:05:40.622Z,3.20
2023-03-17T01:08:07.718Z,3.31
2023-03-17T01:10:34.021Z,3.22
2023-03-17T01:13:00.667Z,3.15
2023-03-17T01:15:31.549Z,3.11
2023-03-17T01:18:02.625Z,3.07
2023-03-17T01:20:32.832Z,3.24
2023-03-17T01:23:00.403Z,3.34
2023-03-17T01:25:27.590Z,3.27
2023-03-17T01:27:59.656Z,3.30
2023-03-17T01:30:28.743Z,3.27
2023-03-17T01:32:56.978Z,3.26
2023-03-17T01:35:25.687Z,3.32
2023-03-17T01:37:53.243Z,3.39
2023-03-17T01:40:23.417Z,3.29
2023-03-17T01:43:13.358Z,3.20
2023-03-17T01:46:13.989Z,3.17
2023-03-17T01:49:05.604Z,2.98
2023-03-17T01:51:50.244Z,2.85
2023-03-17T01:54:34.565Z,2.72
2023-03-17T01:57:09.270Z,2.52
2023-03-17T01:59:42.166Z,2.61
2023-03-17T02:02:11.090Z,2.50
2023-03-17T02:04:39.037Z,2.56
2023-03-17T02:07:06.224Z,2.48
2023-03-17T02:09:33.992Z,2.32
2023-03-17T02:12:02.248Z,2.26
2023-03-17T02:14:29.175Z,2.16
2023-03-17T02:16:56.084Z,2.21
2023-03-17T02:19:22.529Z,2.19
2023-03-17T02:21:57.885Z,2.27
2023-03-17T02:24:37.569Z,2.49
2023-03-17T02:27:11.731Z,2.62
2023-03-17T02:29:38.268Z,2.63
2023-03-17T02:32:05.696Z,2.58
2023-03-17T02:34:32.712Z,2.56
2023-03-17T02:36:59.230Z,2.58
2023-03-17T02:39:25.970Z,2.58
2023-03-17T02:41:53.017Z,2.52
2023-03-17T02:44:19.375Z,2.71
2023-03-17T02:46:46.182Z,2.80
2023-03-17T02:49:13.684Z,2.69
2023-03-17T02:51:40.124Z,2.57
2023-03-17T02:54:06.426Z,2.51
2023-03-17T02:56:32.826Z,2.41
2023-03-17T02:58:59.135Z,2.28
2023-03-17T03:01:26.752Z,2.10
2023-03-17T03:03:53.210Z,1.93
2023-03-17T03:06:19.546Z,1.89
2023-03-17T03:08:45.978Z,1.81
2023-03-17T03:11:12.723Z,1.73
2023-03-17T03:13:39.061Z,1.68
2023-03-17T03:16:05.765Z,1.74
2023-03-17T03:18:32.786Z,1.85
2023-03-17T03:20:59.110Z,1.85
2023-03-17T03:23:25.397Z,1.77
2023-03-17T03:25:51.908Z,1.60
2023-03-17T03:28:18.377Z,1.45
2023-03-17T03:30:45.741Z,1.32
2023-03-17T03:33:13.986Z,1.17
2023-03-17T03:35:40.699Z,1.06
2023-03-17T03:38:07.567Z,0.97
2023-03-17T03:40:34.705Z,1.00
2023-03-17T03:43:07.540Z,1.08
2023-03-17T03:45:39.392Z,1.24
2023-03-17T03:48:05.984Z,1.38
2023-03-17T03:50:32.965Z,1.38
2023-03-17T03:52:59.288Z,1.23
2023-03-17T03:55:25.646Z,1.27
2023-03-17T03:57:52.206Z,1.20
2023-03-17T04:00:18.816Z,1.06
2023-03-17T04:02:46.483Z,1.08
2023-03-17T04:05:14.462Z,1.06
2023-03-17T04:07:41.664Z,0.98
2023-03-17T04:10:08.918Z,1.05
2023-03-17T04:12:35.280Z,0.99
2023-03-17T04:15:02.238Z,0.85
2023-03-17T04:17:28.620Z,0.75
2023-03-17T04:19:55.009Z,0.88
2023-03-17T04:22:21.380Z,1.17
2023-03-17T04:24:47.789Z,1.15
2023-03-17T04:27:15.456Z,1.15
2023-03-17T04:29:42.861Z,1.08
2023-03-17T04:32:11.588Z,1.00
2023-03-17T04:34:37.944Z,0.87
2023-03-17T04:37:04.315Z,0.83
2023-03-17T04:39:30.887Z,0.83
2023-03-17T04:41:57.465Z,0.98
2023-03-17T04:44:23.797Z,0.94
2023-03-17T04:46:50.222Z,0.77
2023-03-17T04:49:16.682Z,0.62
2023-03-17T04:51:42.975Z,0.50
2023-03-17T04:54:09.297Z,0.42
2023-03-17T04:56:36.177Z,0.42
2023-03-17T04:59:03.188Z,0.46
2023-03-17T05:01:29.565Z,0.48
2023-03-17T05:03:56.095Z,0.41
2023-03-17T05:06:22.659Z,0.45
2023-03-17T05:08:49.158Z,0.39
2023-03-17T05:11:16.190Z,0.27
2023-03-17T05:13:42.645Z,0.21
2023-03-17T05:16:09.809Z,0.06
2023-03-17T05:18:37.155Z,-0.07
2023-03-17T05:21:05.247Z,-0.14
2023-03-17T05:23:32.147Z,-0.19
2023-03-17T05:25:59.202Z,-0.03
2023-03-17T05:28:26.608Z,-0.06
2023-03-17T05:30:53.480Z,-0.12
2023-03-17T05:33:20.171Z,-0.07
2023-03-17T05:35:47.138Z,0.15
2023-03-17T05:38:15.084Z,0.17
2023-03-17T05:40:42.616Z,0.14
2023-03-17T05:43:09.245Z,0.15
2023-03-17T05:45:35.639Z,0.08
2023-03-17T05:48:02.167Z,0.27
2023-03-17T05:50:28.541Z,0.25
2023-03-17T05:52:54.971Z,0.30
2023-03-17T05:55:21.782Z,0.32
2023-03-17T05:57:48.137Z,0.59
2023-03-17T06:00:16.122Z,0.71
2023-03-17T06:02:42.901Z,0.69
2023-03-17T06:05:09.486Z,0.61
2023-03-17T06:07:50.827Z,0.86
2023-03-17T06:10:18.422Z,0.97
2023-03-17T06:12:44.778Z,0.96
2023-03-17T06:15:11.099Z,1.13
2023-03-17T06:17:37.503Z,1.23
2023-03-17T06:20:05.341Z,1.24
2023-03-17T06:22:32.717Z,1.28
2023-03-17T06:24:59.296Z,1.30
2023-03-17T06:27:25.605Z,1.40
2023-03-17T06:29:51.899Z,1.42
2023-03-17T06:32:20.952Z,1.49
2023-03-17T06:34:48.103Z,1.55
2023-03-17T06:37:14.648Z,1.58
2023-03-17T06:39:42.170Z,2.06
2023-03-17T06:42:08.637Z,2.63
2023-03-17T06:44:36.192Z,3.32
2023-03-17T06:47:02.617Z,3.86
2023-03-17T06:49:29.108Z,4.14
2023-03-17T06:51:55.500Z,4.06
2023-03-17T06:54:24.499Z,4.15
2023-03-17T06:56:53.009Z,4.43
2023-03-17T06:59:22.578Z,5.07
2023-03-17T07:01:49.417Z,5.51
2023-03-17T07:04:16.251Z,6.16
2023-03-17T07:06:42.987Z,6.29
2023-03-17T07:09:10.028Z,6.53
2023-03-17T07:11:36.356Z,6.28
2023-03-17T07:14:02.777Z,6.30
2023-03-17T07:16:29.357Z,6.20
2023-03-17T07:18:55.752Z,6.17
2023-03-17T07:21:22.101Z,6.17
2023-03-17T07:23:48.490Z,6.26
2023-03-17T07:26:14.812Z,6.35
2023-03-17T07:28:41.835Z,6.43
2023-03-17T07:31:09.461Z,6.37
2023-03-17T07:33:35.951Z,6.47
2023-03-17T07:36:02.819Z,6.54
2023-03-17T07:38:29.156Z,6.63
2023-03-17T07:40:55.749Z,6.69
2023-03-17T07:43:22.476Z,6.85
2023-03-17T07:45:48.864Z,7.04
2023-03-17T07:48:15.251Z,7.18
2023-03-17T07:50:42.366Z,7.45
2023-03-17T07:53:08.960Z,7.69
2023-03-17T07:55:36.876Z,7.92
2023-03-17T07:58:03.412Z,8.13
2023-03-17T08:00:30.861Z,8.32
2023-03-17T08:03:09.400Z,8.52
2023-03-17T08:05:36.417Z,8.70
2023-03-17T08:08:02.789Z,8.85
2023-03-17T08:10:29.531Z,9.07
2023-03-17T08:12:56.312Z,9.19
2023-03-17T08:15:22.665Z,9.31
2023-03-17T08:17:49.025Z,9.49
2023-03-17T08:20:15.374Z,9.64
2023-03-17T08:22:41.716Z,9.77
2023-03-17T08:25:09.560Z,9.88
2023-03-17T08:27:36.199Z,10.00
2023-03-17T08:30:04.112Z,10.00
2023-03-17T08:32:30.738Z,10.19
2023-03-17T08:34:57.073Z,10.26
2023-03-17T08:37:24.568Z,10.46
2023-03-17T08:39:51.002Z,10.62
2023-03-17T08:42:17.427Z,10.68
2023-03-17T08:44:44.214Z,10.76
2023-03-17T08:47:10.787Z,10.86
2023-03-17T08:49:37.313Z,11.13
2023-03-17T08:52:04.093Z,11.36
2023-03-17T08:54:30.389Z,11.55
2023-03-17T08:56:57.809Z,11.75
2023-03-17T08:59:24.101Z,11.93
2023-03-17T09:01:50.570Z,12.14
2023-03-17T09:04:16.994Z,12.02
2023-03-17T09:07:01.335Z,11.99
2023-03-17T09:09:30.705Z,12.28
2023-03-17T09:11:57.102Z,12.35
2023-03-17T09:14:24.650Z,12.59
2023-03-17T09:16:51.035Z,12.66
2023-03-17T09:19:17.854Z,12.69
2023-03-17T09:21:44.847Z,12.98
2023-03-17T09:24:11.236Z,12.86
2023-03-17T09:26:37.659Z,12.81
2023-03-17T09:29:05.126Z,12.81
2023-03-17T09:31:32.787Z,12.96
2023-03-17T09:33:59.806Z,12.91
2023-03-17T09:36:26.211Z,13.02
2023-03-17T09:38:52.637Z,13.31
2023-03-17T09:41:48.598Z,13.46
2023-03-17T09:44:32.143Z,13.67
2023-03-17T09:46:58.421Z,13.63
2023-03-17T09:49:29.314Z,13.75
2023-03-17T09:51:56.035Z,13.77
2023-03-17T09:54:34.704Z,13.86
2023-03-17T09:57:09.456Z,13.72
2023-03-17T09:59:42.013Z,13.80
2023-03-17T10:02:23.839Z,14.20
2023-03-17T10:04:50.269Z,14.27
2023-03-17T10:07:22.470Z,14.06
2023-03-17T10:10:00.864Z,14.22
2023-03-17T10:12:41.594Z,14.03
2023-03-17T10:15:38.289Z,13.94
2023-03-17T10:18:13.887Z,14.21
2023-03-17T10:20:51.841Z,14.13
2023-03-17T10:23:23.661Z,14.27
2023-03-17T10:25:49.967Z,14.40
2023-03-17T10:28:28.208Z,14.68
2023-03-17T10:30:57.404Z,15.03
2023-03-17T10:33:23.873Z,15.26
2023-03-17T10:35:50.338Z,15.21
2023-03-17T10:38:24.264Z,15.47
2023-03-17T10:41:05.562Z,15.44
2023-03-17T10:43:45.682Z,15.54
2023-03-17T10:46:24.308Z,15.55
2023-03-17T10:48:53.178Z,15.54
2023-03-17T10:51:30.794Z,15.59
2023-03-17T10:54:01.569Z,15.56
2023-03-17T10:56:35.361Z,15.75
2023-03-17T10:59:07.854Z,16.02
2023-03-17T11:01:47.207Z,16.12
2023-03-17T11:04:35.470Z,16.16
2023-03-17T11:07:20.213Z,15.76
2023-03-17T11:09:52.435Z,15.64
2023-03-17T11:12:39.194Z,15.86
2023-03-17T11:15:10.716Z,16.11
2023-03-17T11:17:36.973Z,16.43
2023-03-17T11:20:12.740Z,16.46
2023-03-17T11:22:42.848Z,16.71
2023-03-17T11:25:15.097Z,16.68
2023-03-17T11:27:50.646Z,16.54
2023-03-17T11:30:29.176Z,16.77
2023-03-17T11:33:33.525Z,16.88
2023-03-17T11:36:09.542Z,16.84
2023-03-17T11:38:58.984Z,16.66
2023-03-17T11:41:53.817Z,16.39
2023-03-17T11:44:47.326Z,15.98
2023-03-17T11:47:22.912Z,16.14
2023-03-17T11:50:07.443Z,16.06
2023-03-17T11:52:58.030Z,15.99
2023-03-17T11:55:45.327Z,16.03
2023-03-17T11:58:23.107Z,16.10
2023-03-17T12:00:54.420Z,16.24
2023-03-17T12:03:31.118Z,16.67
2023-03-17T12:06:02.434Z,16.73
2023-03-17T12:08:40.614Z,16.78
2023-03-17T12:11:12.062Z,16.89
2023-03-17T12:14:06.585Z,17.06
2023-03-17T12:16:44.788Z,16.83
2023-03-17T12:19:19.791Z,16.82
2023-03-17T12:21:59.753Z,16.55
2023-03-17T12:25:05.151Z,16.69
2023-03-17T12:27:36.525Z,16.74
2023-03-17T12:30:15.511Z,16.47
2023-03-17T12:32:49.821Z,16.46
2023-03-17T12:35:35.078Z,16.47
2023-03-17T12:38:09.053Z,16.69
2023-03-17T12:40:44.222Z,16.95
2023-03-17T12:43:36.949Z,17.13
2023-03-17T12:46:22.384Z,17.11
2023-03-17T12:49:15.619Z,16.96
2023-03-17T12:52:04.873Z,16.99
2023-03-17T12:54:34.717Z,17.12
2023-03-17T12:57:24.107Z,17.19
2023-03-17T12:59:58.850Z,17.13
2023-03-17T13:02:36.424Z,17.14
2023-03-17T13:05:07.838Z,17.17
2023-03-17T13:07:39.062Z,17.04
2023-03-17T13:10:19.310Z,17.06
2023-03-17T13:12:48.584Z,16.94
2023-03-17T13:15:49.526Z,17.01
2023-03-17T13:18:16.135Z,17.08
2023-03-17T13:20:51.301Z,17.24
2023-03-17T13:23:21.976Z,17.27
2023-03-17T13:25:53.314Z,16.88
2023-03-17T13:28:25.998Z,16.96
2023-03-17T13:31:19.285Z,17.12
2023-03-17T13:33:53.129Z,17.32
2023-03-17T13:36:25.432Z,17.15
2023-03-17T13:39:30.942Z,17.12
2023-03-17T13:42:18.075Z,17.17
2023-03-17T13:45:16.494Z,16.86
2023-03-17T13:47:43.555Z,16.96
2023-03-17T13:50:29.958Z,17.17
2023-03-17T13:53:02.351Z,17.34
2023-03-17T13:55:35.084Z,17.37
2023-03-17T13:58:10.924Z,17.44
2023-03-17T14:00:40.149Z,17.69
2023-03-17T14:03:22.272Z,17.94
2023-03-17T14:05:52.660Z,17.98
2023-03-17T14:08:34.639Z,17.93
2023-03-17T14:11:16.066Z,17.73
2023-03-17T14:14:25.984Z,17.70
2023-03-17T14:17:10.620Z,17.62
2023-03-17T14:19:41.268Z,17.56
2023-03-17T14:22:25.196Z,17.36
2023-03-17T14:24:55.875Z,17.37
2023-03-17T14:27:24.247Z,17.45
2023-03-17T14:29:52.176Z,17.41
2023-03-17T14:32:21.220Z,17.43
2023-03-17T14:34:56.652Z,17.31
2023-03-17T14:37:23.471Z,17.29
2023-03-17T14:39:52.953Z,17.32
2023-03-17T14:42:45.766Z,17.33
2023-03-17T14:45:32.678Z,17.25
2023-03-17T14:48:01.744Z,17.26
2023-03-17T14:50:31.445Z,17.23
2023-03-17T14:52:59.790Z,17.30
2023-03-17T14:55:43.332Z,17.10
2023-03-17T14:58:20.850Z,17.11
2023-03-17T15:00:54.881Z,16.95
2023-03-17T15:03:25.154Z,16.91
2023-03-17T15:05:52.562Z,16.88
2023-03-17T15:08:34.470Z,16.92
2023-03-17T15:11:04.288Z,16.88
2023-03-17T15:13:34.790Z,16.90
2023-03-17T15:16:17.359Z,16.76
2023-03-17T15:18:44.696Z,16.71
2023-03-17T15:21:29.886Z,16.67
2023-03-17T15:23:56.244Z,16.72
2023-03-17T15:26:33.413Z,16.80
2023-03-17T15:29:00.369Z,16.75
2023-03-17T15:31:29.948Z,16.73
2023-03-17T15:33:57.279Z,16.66
2023-03-17T15:36:32.341Z,16.62
2023-03-17T15:39:00.399Z,16.58
2023-03-17T15:41:26.744Z,16.55
2023-03-17T15:43:53.510Z,16.51
2023-03-17T15:46:24.677Z,16.46
2023-03-17T15:48:51.583Z,16.35
2023-03-17T15:51:18.363Z,16.17
2023-03-17T15:53:44.814Z,16.06
2023-03-17T15:56:20.336Z,15.95
2023-03-17T15:58:49.042Z,15.79
2023-03-17T16:01:16.310Z,15.63
2023-03-17T16:03:45.263Z,15.51
2023-03-17T16:06:21.949Z,15.35
2023-03-17T16:08:49.288Z,15.27
2023-03-17T16:11:25.338Z,15.14
2023-03-17T16:13:51.629Z,15.07
2023-03-17T16:16:26.988Z,15.04
2023-03-17T16:18:53.330Z,14.98
2023-03-17T16:21:19.758Z,14.96
2023-03-17T16:23:47.689Z,14.90
2023-03-17T16:26:16.762Z,14.95
2023-03-17T16:28:45.510Z,14.82
2023-03-17T16:31:25.459Z,14.64
2023-03-17T16:33:53.416Z,14.51
2023-03-17T16:36:21.095Z,14.46
2023-03-17T16:38:47.774Z,14.46
2023-03-17T16:41:23.128Z,14.25
2023-03-17T16:43:53.522Z,14.15
2023-03-17T16:46:20.955Z,14.04
2023-03-17T16:48:49.464Z,14.01
2023-03-17T16:51:16.682Z,13.97
2023-03-17T16:53:43.405Z,13.92
2023-03-17T16:56:14.646Z,13.83
2023-03-17T16:58:41.615Z,13.83
2023-03-17T17:01:28.557Z,13.79
2023-03-17T17:03:55.667Z,13.75
2023-03-17T17:06:23.558Z,13.76
2023-03-17T17:08:51.299Z,13.62
2023-03-17T17:11:18.930Z,13.53
2023-03-17T17:13:48.273Z,13.45
2023-03-17T17:16:27.823Z,13.38
2023-03-17T17:18:54.483Z,13.40
2023-03-17T17:21:20.889Z,13.29
2023-03-17T17:23:47.311Z,13.16
2023-03-17T17:26:13.667Z,13.04
2023-03-17T17:28:40.312Z,12.97
2023-03-17T17:31:08.245Z,13.01
2023-03-17T17:33:36.232Z,12.93
2023-03-17T17:36:11.420Z,12.79
2023-03-17T17:38:38.091Z,12.75
2023-03-17T17:41:06.832Z,12.73
2023-03-17T17:43:33.357Z,12.70
2023-03-17T17:45:59.897Z,12.57
2023-03-17T17:48:27.536Z,12.44
2023-03-17T17:50:55.583Z,12.34
2023-03-17T17:53:22.045Z,12.30
2023-03-17T17:55:49.479Z,12.25
2023-03-17T17:58:22.071Z,12.23
2023-03-17T18:00:48.964Z,12.31
2023-03-17T18:03:15.452Z,12.29
2023-03-17T18:05:41.922Z,12.15
2023-03-17T18:08:13.367Z,12.15
2023-03-17T18:10:39.700Z,12.07
2023-03-17T18:13:06.015Z,11.97
2023-03-17T18:15:32.438Z,12.00
2023-03-17T18:17:58.796Z,12.07
2023-03-17T18:20:25.761Z,12.23
2023-03-17T18:22:52.257Z,12.19
2023-03-17T18:25:19.345Z,12.09
2023-03-17T18:27:47.038Z,12.08
2023-03-17T18:30:20.278Z,12.02
2023-03-17T18:32:49.453Z,11.99
2023-03-17T18:35:19.672Z,12.00
2023-03-17T18:37:46.395Z,11.97
2023-03-17T18:40:16.421Z,11.90
2023-03-17T18:42:45.175Z,11.84
2023-03-17T18:45:12.444Z,11.73
2023-03-17T18:47:40.075Z,11.67
2023-03-17T18:50:08.053Z,11.68
2023-03-17T18:52:36.636Z,11.59
2023-03-17T18:55:04.347Z,11.51
2023-03-17T18:57:31.148Z,11.70
2023-03-17T18:59:57.483Z,11.74
2023-03-17T19:02:23.941Z,11.61
2023-03-17T19:04:50.320Z,11.50
2023-03-17T19:07:17.837Z,11.54
2023-03-17T19:09:44.721Z,11.52
2023-03-17T19:12:11.081Z,11.40
2023-03-17T19:14:38.644Z,11.38
2023-03-17T19:17:06.152Z,11.35
2023-03-17T19:19:33.834Z,11.33
2023-03-17T19:22:00.768Z,11.26
2023-03-17T19:24:27.398Z,11.18
2023-03-17T19:26:53.685Z,11.09
2023-03-17T19:29:20.071Z,11.11
2023-03-17T19:31:48.483Z,11.19
2023-03-17T19:34:15.400Z,11.10
2023-03-17T19:36:46.262Z,11.09
2023-03-17T19:39:13.510Z,11.16
2023-03-17T19:41:40.050Z,11.19
2023-03-17T19:44:06.909Z,11.15
2023-03-17T19:46:35.103Z,10.98
2023-03-17T19:49:01.526Z,10.97
2023-03-17T19:51:27.987Z,10.92
2023-03-17T19:53:55.408Z,10.84
2023-03-17T19:56:22.990Z,10.86
2023-03-17T19:58:49.445Z,10.92
2023-03-17T20:01:17.103Z,10.80
2023-03-17T20:03:43.666Z,10.85
2023-03-17T20:06:11.836Z,10.74
2023-03-17T20:08:38.994Z,10.72
2023-03-17T20:11:06.176Z,10.65
2023-03-17T20:13:34.461Z,10.60
2023-03-17T20:16:01.662Z,10.62
2023-03-17T20:18:28.778Z,10.55
2023-03-17T20:20:57.380Z,10.54
2023-03-17T20:23:24.992Z,10.49
2023-03-17T20:25:53.131Z,10.52
2023-03-17T20:28:21.353Z,10.56
2023-03-17T20:30:49.228Z,10.54
2023-03-17T20:33:16.938Z,10.50
2023-03-17T20:35:46.470Z,10.45
2023-03-17T20:38:13.448Z,10.38
2023-03-17T20:40:40.063Z,10.35
2023-03-17T20:43:06.646Z,10.39
2023-03-17T20:45:33.163Z,10.48
2023-03-17T20:48:00.681Z,10.39
2023-03-17T20:50:27.058Z,10.42
2023-03-17T20:52:53.731Z,10.36
2023-03-17T20:55:20.152Z,10.29
2023-03-17T20:57:47.401Z,10.12
2023-03-17T21:00:21.057Z,10.03
2023-03-17T21:02:50.152Z,10.05
2023-03-17T21:05:23.210Z,10.02
2023-03-17T21:07:50.092Z,9.96
2023-03-17T21:10:17.342Z,9.99
2023-03-17T21:12:45.128Z,10.16
2023-03-17T21:15:12.937Z,10.20
2023-03-17T21:17:42.293Z,10.18
2023-03-17T21:20:11.565Z,10.10
2023-03-17T21:22:39.711Z,10.13
2023-03-17T21:25:08.447Z,10.09
2023-03-17T21:27:37.653Z,10.08
2023-03-17T21:30:08.021Z,10.24
2023-03-17T21:32:34.405Z,10.33
2023-03-17T21:35:00.894Z,10.23
2023-03-17T21:37:27.578Z,10.21
2023-03-17T21:39:53.968Z,10.31
2023-03-17T21:42:20.277Z,10.27
2023-03-17T21:44:48.181Z,10.16
2023-03-17T21:47:15.642Z,10.05
2023-03-17T21:49:41.988Z,10.03
2023-03-17T21:52:08.326Z,9.98
2023-03-17T21:54:35.022Z,10.06
2023-03-17T21:57:01.664Z,10.02
2023-03-17T21:59:30.828Z,10.08
2023-03-17T22:01:57.797Z,10.05
2023-03-17T22:04:24.106Z,10.17
2023-03-17T22:06:51.551Z,10.17
2023-03-17T22:09:19.250Z,10.18
2023-03-17T22:11:45.819Z,10.10
2023-03-17T22:14:13.205Z,10.04
2023-03-17T22:16:39.766Z,9.97
2023-03-17T22:19:06.113Z,9.98
2023-03-17T22:21:32.437Z,9.98
2023-03-17T22:23:58.829Z,9.99
2023-03-17T22:26:25.217Z,10.01
2023-03-17T22:28:51.585Z,9.94
2023-03-17T22:31:21.784Z,10.01
2023-03-17T22:33:49.938Z,9.99
2023-03-17T22:36:17.776Z,9.96
2023-03-17T22:38:47.591Z,9.83
2023-03-17T22:41:19.926Z,9.82
2023-03-17T22:43:48.572Z,9.77
2023-03-17T22:46:16.829Z,9.71
2023-03-17T22:48:44.113Z,9.64
2023-03-17T22:51:13.865Z,9.60
2023-03-17T22:53:41.116Z,9.60
2023-03-17T22:56:08.649Z,9.54
2023-03-17T22:58:35.775Z,9.51
2023-03-17T23:01:02.640Z,9.57
2023-03-17T23:03:29.709Z,9.63
2023-03-17T23:05:58.435Z,9.57
2023-03-17T23:08:26.044Z,9.60
2023-03-17T23:10:53.503Z,9.56
2023-03-17T23:13:20.803Z,9.58
2023-03-17T23:15:48.862Z,9.56
2023-03-17T23:18:15.433Z,9.62
2023-03-17T23:20:42.651Z,9.54
2023-03-17T23:23:10.650Z,9.48
2023-03-17T23:25:38.012Z,9.52
2023-03-17T23:28:05.594Z,9.58
2023-03-17T23:30:32.407Z,9.67
2023-03-17T23:32:59.122Z,9.76
2023-03-17T23:35:25.672Z,9.80
2023-03-17T23:37:52.250Z,9.80
2023-03-17T23:40:18.723Z,9.79
2023-03-17T23:42:47.927Z,9.62
2023-03-17T23:45:16.452Z,9.59
2023-03-17T23:47:43.411Z,9.58
2023-03-17T23:50:11.473Z,9.69
2023-03-17T23:52:38.248Z,9.71
2023-03-17T23:55:06.652Z,9.55
2023-03-17T23:57:34.627Z,9.55
